Time;durP1;ratioP1;P1;durP2;ratioP2;P2;SDS_P1;SDS_P2;PMS_P1;PMS_P2;Temp;Humidity;BMP_temperature;BMP_pressure;BME280_temperature;BME280_humidity;BME280_pressure;Samples;Min_cycle;Max_cycle;Signal;HPM_P1;HPM_P2
2021/09/04 00:00:31;;;;;;;21.57;17.13;;;12.50;99.90;;;;;;5012135;28;20833;-66
2021/09/04 00:02:58;;;;;;;18.30;16.30;;;12.40;99.90;;;;;;5011711;28;20565;-66
2021/09/04 00:05:26;;;;;;;20.97;16.33;;;12.40;99.90;;;;;;5011935;28;20442;-66
2021/09/04 00:07:53;;;;;;;17.50;15.60;;;12.40;99.90;;;;;;5012293;28;20456;-66
2021/09/04 00:10:21;;;;;;;19.27;15.63;;;12.40;99.90;;;;;;5011847;28;20441;-67
2021/09/04 00:12:48;;;;;;;15.00;13.13;;;12.40;99.90;;;;;;5011319;28;20479;-66
2021/09/04 00:15:15;;;;;;;22.17;15.60;;;12.30;99.90;;;;;;5011508;28;20494;-66
2021/09/04 00:17:42;;;;;;;16.00;14.03;;;12.30;99.90;;;;;;5011458;28;20553;-66
2021/09/04 00:20:11;;;;;;;18.03;15.43;;;12.20;99.90;;;;;;5011254;28;20490;-66
2021/09/04 00:22:40;;;;;;;16.90;14.77;;;12.20;99.90;;;;;;5011362;28;20457;-66
2021/09/04 00:25:07;;;;;;;17.17;15.37;;;12.20;99.90;;;;;;5011906;28;20438;-66
2021/09/04 00:27:34;;;;;;;18.40;15.17;;;12.20;99.90;;;;;;5014853;28;20565;-66
2021/09/04 00:30:01;;;;;;;17.13;15.20;;;12.20;99.90;;;;;;5015619;28;20446;-66
2021/09/04 00:32:28;;;;;;;16.77;13.70;;;12.10;99.90;;;;;;5014036;28;20473;-71
2021/09/04 00:34:55;;;;;;;17.80;15.90;;;12.10;99.90;;;;;;5013462;28;20446;-66
2021/09/04 00:37:22;;;;;;;16.40;14.60;;;12.10;99.90;;;;;;5011857;28;20946;-67
2021/09/04 00:39:50;;;;;;;16.10;14.17;;;12.10;99.90;;;;;;5010990;28;20603;-67
2021/09/04 00:42:19;;;;;;;18.10;14.40;;;12.00;99.90;;;;;;5010929;28;20529;-66
2021/09/04 00:44:46;;;;;;;16.17;13.93;;;12.00;99.90;;;;;;5011004;28;20890;-67
2021/09/04 00:47:13;;;;;;;17.90;16.03;;;12.00;99.90;;;;;;5011153;28;20525;-67
2021/09/04 00:49:40;;;;;;;16.77;13.80;;;12.00;99.90;;;;;;5011364;28;20442;-66
2021/09/04 00:52:08;;;;;;;16.90;14.40;;;12.00;99.90;;;;;;5010849;28;20446;-66
2021/09/04 00:54:35;;;;;;;17.83;14.33;;;12.00;99.90;;;;;;5011018;28;20462;-67
2021/09/04 00:57:05;;;;;;;17.80;13.90;;;11.90;99.90;;;;;;5011066;28;20896;-67
2021/09/04 00:59:32;;;;;;;16.37;14.63;;;11.90;99.90;;;;;;5010617;28;20493;-66
2021/09/04 01:01:59;;;;;;;16.20;13.60;;;11.90;99.90;;;;;;5010348;28;20449;-66
2021/09/04 01:04:26;;;;;;;15.57;14.00;;;11.90;99.90;;;;;;5010862;28;20466;-68
2021/09/04 01:06:53;;;;;;;16.90;13.33;;;11.90;99.90;;;;;;5010720;28;20481;-66
2021/09/04 01:09:21;;;;;;;17.77;14.93;;;12.00;99.90;;;;;;5010473;28;20536;-68
2021/09/04 01:11:48;;;;;;;16.23;14.57;;;11.90;99.90;;;;;;5010577;28;20466;-67
2021/09/04 01:14:17;;;;;;;18.27;14.93;;;11.90;99.90;;;;;;5009596;28;20481;-66
2021/09/04 01:16:45;;;;;;;17.70;15.20;;;11.80;99.90;;;;;;5010405;28;20446;-66
2021/09/04 01:19:12;;;;;;;15.90;14.20;;;11.70;99.90;;;;;;5010665;28;20473;-67
2021/09/04 01:21:39;;;;;;;16.67;14.70;;;11.70;99.90;;;;;;5010263;28;20528;-67
2021/09/04 01:24:07;;;;;;;16.30;14.60;;;11.70;99.90;;;;;;5010497;28;20472;-66
2021/09/04 01:26:36;;;;;;;15.23;13.27;;;11.70;99.90;;;;;;5010469;28;20446;-66
2021/09/04 01:29:03;;;;;;;18.67;13.73;;;11.70;99.90;;;;;;5010453;28;20557;-66
2021/09/04 01:31:30;;;;;;;17.77;15.87;;;11.60;99.90;;;;;;5010397;28;20452;-66
2021/09/04 01:33:57;;;;;;;18.67;14.83;;;11.60;99.90;;;;;;5010306;28;20974;-66
2021/09/04 01:36:29;;;;;;;21.20;15.93;;;11.50;99.90;;;;;;5010457;28;20450;-66
2021/09/04 01:38:56;;;;;;;17.00;14.70;;;11.50;99.90;;;;;;5010290;28;20454;-67
2021/09/04 01:41:23;;;;;;;19.57;15.80;;;11.50;99.90;;;;;;5010145;28;20848;-66
2021/09/04 01:43:51;;;;;;;17.93;16.03;;;11.40;99.90;;;;;;5010405;28;20470;-66
2021/09/04 01:46:19;;;;;;;17.67;14.70;;;11.40;99.90;;;;;;5010419;28;20481;-67
2021/09/04 01:48:46;;;;;;;19.97;16.80;;;11.50;99.90;;;;;;5010152;28;20532;-67
2021/09/04 01:51:13;;;;;;;18.10;15.53;;;11.50;99.90;;;;;;5010428;28;20457;-67
2021/09/04 01:53:40;;;;;;;19.50;16.50;;;11.50;99.90;;;;;;5009821;28;20480;-67
2021/09/04 01:56:07;;;;;;;18.63;14.50;;;11.50;99.90;;;;;;5010175;28;20833;-67
2021/09/04 01:58:34;;;;;;;21.20;16.27;;;11.50;99.90;;;;;;5010227;28;20450;-67
2021/09/04 02:01:03;;;;;;;19.33;16.27;;;11.40;99.90;;;;;;5010352;28;20862;-67
2021/09/04 02:03:29;;;;;;;18.57;15.33;;;11.40;99.90;;;;;;5009921;28;20502;-67
2021/09/04 02:05:56;;;;;;;21.00;14.77;;;11.50;99.90;;;;;;5010276;28;20452;-67
2021/09/04 02:08:23;;;;;;;17.80;14.80;;;11.40;99.90;;;;;;5010011;28;20472;-67
2021/09/04 02:10:50;;;;;;;18.00;15.60;;;11.30;99.90;;;;;;5010060;28;20456;-67
2021/09/04 02:13:17;;;;;;;16.40;14.60;;;11.30;99.90;;;;;;5009846;28;20472;-67
2021/09/04 02:15:44;;;;;;;21.33;14.73;;;11.30;99.90;;;;;;5010170;28;20829;-67
2021/09/04 02:18:12;;;;;;;17.90;14.60;;;11.20;99.90;;;;;;5010095;28;21021;-67
2021/09/04 02:20:39;;;;;;;17.90;14.47;;;11.20;99.90;;;;;;5009916;28;21199;-67
2021/09/04 02:23:06;;;;;;;17.50;15.53;;;11.20;99.90;;;;;;5009410;28;20466;-67
2021/09/04 02:25:33;;;;;;;17.20;14.50;;;11.20;99.90;;;;;;5010675;28;21298;-67
2021/09/04 02:27:59;;;;;;;18.40;14.07;;;11.10;99.90;;;;;;5013737;28;20450;-65
2021/09/04 02:30:26;;;;;;;15.10;13.43;;;11.10;99.90;;;;;;5013482;28;20525;-67
2021/09/04 02:32:53;;;;;;;19.00;15.93;;;11.10;99.90;;;;;;5013324;28;20868;-64
2021/09/04 02:35:21;;;;;;;17.83;14.10;;;11.00;99.90;;;;;;5013673;28;20452;-67
2021/09/04 02:37:49;;;;;;;19.73;15.30;;;11.10;99.90;;;;;;5013707;28;20548;-67
2021/09/04 02:40:15;;;;;;;19.30;16.90;;;11.10;99.90;;;;;;5013321;28;20579;-67
2021/09/04 02:42:42;;;;;;;20.27;16.60;;;11.10;99.90;;;;;;5013016;28;20549;-67
2021/09/04 02:45:10;;;;;;;17.47;15.27;;;11.00;99.90;;;;;;5013465;28;20450;-65
2021/09/04 02:47:38;;;;;;;19.17;16.43;;;11.00;99.90;;;;;;5013309;28;20450;-65
2021/09/04 02:50:05;;;;;;;17.90;15.17;;;11.10;99.90;;;;;;5013309;28;20461;-65
2021/09/04 02:52:33;;;;;;;17.50;15.37;;;11.20;99.90;;;;;;5012975;28;20454;-65
2021/09/04 02:55:00;;;;;;;16.63;14.77;;;11.20;99.90;;;;;;5013313;28;20452;-65
2021/09/04 02:57:27;;;;;;;16.67;14.07;;;11.20;99.90;;;;;;5012774;28;21005;-65
2021/09/04 02:59:54;;;;;;;17.93;14.80;;;11.20;99.90;;;;;;5012942;28;20485;-66
2021/09/04 03:02:21;;;;;;;17.57;13.77;;;11.10;99.90;;;;;;5012513;28;20956;-65
2021/09/04 03:04:47;;;;;;;19.20;14.80;;;11.10;99.90;;;;;;5012768;28;21106;-67
2021/09/04 03:07:14;;;;;;;15.27;13.67;;;11.00;99.90;;;;;;5012923;28;20533;-67
2021/09/04 03:09:42;;;;;;;18.37;14.97;;;11.00;99.90;;;;;;5012874;28;20456;-67
2021/09/04 03:12:09;;;;;;;18.83;14.50;;;11.00;99.90;;;;;;5012301;28;20532;-68
2021/09/04 03:14:38;;;;;;;21.37;15.63;;;10.90;99.90;;;;;;5012662;28;20512;-67
2021/09/04 03:17:05;;;;;;;18.30;15.87;;;10.90;99.90;;;;;;5012694;28;20449;-67
2021/09/04 03:19:32;;;;;;;18.77;15.67;;;10.90;99.90;;;;;;5012427;28;20457;-67
2021/09/04 03:21:59;;;;;;;19.20;14.13;;;10.80;99.90;;;;;;5012420;28;20450;-67
2021/09/04 03:24:25;;;;;;;16.83;14.07;;;10.80;99.90;;;;;;5012453;28;20481;-67
2021/09/04 03:26:54;;;;;;;24.90;14.37;;;10.80;99.90;;;;;;5012490;28;20800;-65
2021/09/04 03:29:21;;;;;;;18.00;13.50;;;10.80;99.90;;;;;;5012524;28;20467;-67
2021/09/04 03:31:48;;;;;;;16.33;14.53;;;10.90;99.90;;;;;;5011949;28;20454;-67
2021/09/04 03:34:15;;;;;;;17.07;14.17;;;11.00;99.90;;;;;;5012322;28;20470;-69
2021/09/04 03:36:42;;;;;;;17.20;13.90;;;11.00;99.90;;;;;;5012560;28;20456;-67
2021/09/04 03:39:09;;;;;;;18.30;15.13;;;10.90;99.90;;;;;;5011855;28;20449;-67
2021/09/04 03:41:35;;;;;;;18.13;14.67;;;10.90;99.90;;;;;;5011793;28;20993;-64
2021/09/04 03:44:04;;;;;;;19.10;14.73;;;10.90;99.90;;;;;;5012228;28;20476;-67
2021/09/04 03:46:31;;;;;;;18.30;14.20;;;10.90;99.90;;;;;;5012018;28;20456;-67
2021/09/04 03:49:00;;;;;;;16.60;14.23;;;10.90;99.90;;;;;;5012029;28;20488;-67
2021/09/04 03:51:27;;;;;;;16.60;14.53;;;10.90;99.90;;;;;;5011709;28;20547;-67
2021/09/04 03:53:54;;;;;;;23.77;18.07;;;10.80;99.90;;;;;;5011790;28;20473;-67
2021/09/04 03:56:22;;;;;;;20.10;17.27;;;10.80;99.90;;;;;;5011682;28;20488;-65
2021/09/04 03:58:49;;;;;;;18.70;15.60;;;10.80;99.90;;;;;;5011930;28;20454;-67
2021/09/04 04:01:18;;;;;;;17.93;14.63;;;10.80;99.90;;;;;;5011536;28;20484;-67
2021/09/04 04:03:45;;;;;;;20.60;14.33;;;10.90;99.90;;;;;;5011794;28;20632;-66
2021/09/04 04:06:11;;;;;;;17.13;14.00;;;10.90;99.90;;;;;;5011825;28;20537;-67
2021/09/04 04:08:38;;;;;;;23.73;16.83;;;10.80;99.90;;;;;;5011817;28;20888;-66
2021/09/04 04:11:06;;;;;;;22.33;15.53;;;10.90;99.90;;;;;;5011635;28;20452;-67
2021/09/04 04:13:33;;;;;;;22.03;16.13;;;10.80;99.90;;;;;;5010920;28;20474;-66
2021/09/04 04:16:00;;;;;;;16.20;13.13;;;10.80;99.90;;;;;;5011462;28;20454;-67
2021/09/04 04:18:29;;;;;;;19.07;14.30;;;10.80;99.90;;;;;;5011517;28;20452;-67
2021/09/04 04:20:56;;;;;;;15.43;13.40;;;10.70;99.90;;;;;;5011467;28;20489;-67
2021/09/04 04:23:23;;;;;;;16.30;13.77;;;10.80;99.90;;;;;;5010900;28;20513;-67
2021/09/04 04:25:50;;;;;;;17.30;14.30;;;10.80;99.90;;;;;;5011516;28;20541;-67
2021/09/04 04:28:18;;;;;;;19.63;15.50;;;10.80;99.90;;;;;;5011149;28;20484;-66
2021/09/04 04:30:45;;;;;;;18.83;14.70;;;10.80;99.90;;;;;;5011471;28;20449;-66
2021/09/04 04:33:12;;;;;;;18.90;13.50;;;10.80;99.90;;;;;;5010824;28;20482;-67
2021/09/04 04:35:41;;;;;;;17.07;14.07;;;10.80;99.90;;;;;;5010998;28;20445;-67
2021/09/04 04:38:08;;;;;;;17.33;13.93;;;10.80;99.90;;;;;;5010884;28;20940;-66
2021/09/04 04:40:35;;;;;;;19.53;13.20;;;10.80;99.90;;;;;;5011025;28;21047;-66
2021/09/04 04:43:02;;;;;;;16.43;14.10;;;10.70;99.90;;;;;;5010686;28;20466;-67
2021/09/04 04:45:29;;;;;;;18.97;15.60;;;10.60;99.90;;;;;;5011044;28;20454;-67
2021/09/04 04:47:55;;;;;;;15.40;13.10;;;10.60;99.90;;;;;;5011031;28;20544;-66
2021/09/04 04:50:22;;;;;;;16.90;13.60;;;10.60;99.90;;;;;;5010579;28;20477;-66
2021/09/04 04:52:50;;;;;;;16.17;14.13;;;10.50;99.90;;;;;;5010677;28;20565;-67
2021/09/04 04:55:18;;;;;;;17.73;13.93;;;10.50;99.90;;;;;;5010830;28;20449;-67
2021/09/04 04:57:44;;;;;;;17.73;13.80;;;10.40;99.90;;;;;;5011324;28;20453;-66
2021/09/04 05:00:12;;;;;;;15.80;12.67;;;10.40;99.90;;;;;;5011174;28;21032;-67
2021/09/04 05:02:39;;;;;;;14.90;13.33;;;10.40;99.90;;;;;;5011317;28;20449;-66
2021/09/04 05:05:07;;;;;;;18.00;14.40;;;10.40;99.90;;;;;;5011705;28;20453;-67
2021/09/04 05:07:34;;;;;;;19.30;14.83;;;10.40;99.90;;;;;;5010933;28;20441;-67
2021/09/04 05:10:03;;;;;;;15.97;13.80;;;10.40;99.90;;;;;;5011193;28;20457;-67
2021/09/04 05:12:30;;;;;;;20.03;14.87;;;10.40;99.90;;;;;;5010797;28;20456;-66
2021/09/04 05:14:57;;;;;;;18.67;15.10;;;10.50;99.90;;;;;;5010664;28;20462;-67
2021/09/04 05:17:23;;;;;;;19.00;14.50;;;10.60;99.90;;;;;;5010960;28;20552;-66
2021/09/04 05:19:50;;;;;;;23.20;15.60;;;10.70;99.90;;;;;;5010983;28;20896;-67
2021/09/04 05:22:17;;;;;;;14.87;13.00;;;10.70;99.90;;;;;;5010322;28;20485;-67
2021/09/04 05:24:44;;;;;;;16.73;14.30;;;10.80;99.90;;;;;;5010954;28;20476;-67
2021/09/04 05:27:12;;;;;;;19.80;15.13;;;10.70;99.90;;;;;;5010481;28;20950;-67
2021/09/04 05:29:39;;;;;;;17.80;14.80;;;10.70;99.90;;;;;;5010623;28;20441;-67
2021/09/04 05:32:06;;;;;;;14.87;13.20;;;10.70;99.90;;;;;;5010374;28;20471;-68
2021/09/04 05:34:33;;;;;;;24.23;14.10;;;10.80;99.90;;;;;;5010454;28;20860;-67
2021/09/04 05:37:00;;;;;;;15.87;14.13;;;10.90;99.90;;;;;;5010236;28;20450;-67
2021/09/04 05:39:27;;;;;;;16.10;12.53;;;11.00;99.90;;;;;;5010538;28;20537;-67
2021/09/04 05:41:54;;;;;;;16.77;13.77;;;11.00;99.90;;;;;;5009931;28;20495;-67
2021/09/04 05:44:22;;;;;;;16.53;13.80;;;11.00;99.90;;;;;;5010538;28;20476;-67
2021/09/04 05:46:49;;;;;;;15.93;14.23;;;11.10;99.90;;;;;;5010426;28;20453;-67
2021/09/04 05:49:16;;;;;;;16.50;13.57;;;11.20;99.90;;;;;;5010214;28;20934;-67
2021/09/04 05:51:42;;;;;;;15.23;13.00;;;11.20;99.90;;;;;;5009861;28;20453;-67
2021/09/04 05:54:09;;;;;;;17.20;14.87;;;11.20;99.90;;;;;;5010386;28;20477;-67
2021/09/04 05:56:36;;;;;;;18.20;15.10;;;11.20;99.90;;;;;;5010436;28;20825;-67
2021/09/04 05:59:03;;;;;;;20.13;14.10;;;11.20;99.90;;;;;;5009913;28;20477;-67
2021/09/04 06:01:31;;;;;;;17.73;13.43;;;11.40;99.90;;;;;;5011748;28;20484;-67
2021/09/04 06:03:58;;;;;;;14.27;12.53;;;11.40;99.90;;;;;;5013409;28;20491;-67
2021/09/04 06:06:25;;;;;;;15.50;13.67;;;11.50;99.90;;;;;;5013692;28;20820;-67
2021/09/04 06:08:52;;;;;;;15.20;13.30;;;11.60;99.90;;;;;;5013474;28;20450;-67
2021/09/04 06:11:19;;;;;;;16.37;12.43;;;11.80;99.90;;;;;;5013442;28;20460;-67
2021/09/04 06:13:46;;;;;;;14.73;12.57;;;12.00;99.90;;;;;;5013241;28;20544;-67
2021/09/04 06:16:12;;;;;;;16.53;12.67;;;12.20;99.90;;;;;;5013516;28;20445;-67
2021/09/04 06:18:41;;;;;;;13.00;11.70;;;12.30;99.90;;;;;;5013294;28;20452;-67
2021/09/04 06:21:07;;;;;;;15.67;11.90;;;12.30;99.90;;;;;;5013290;28;20495;-67
2021/09/04 06:23:34;;;;;;;15.93;11.60;;;12.40;99.90;;;;;;5012890;28;20477;-66
2021/09/04 06:26:01;;;;;;;14.37;11.03;;;12.40;99.90;;;;;;5013214;28;20460;-67
2021/09/04 06:28:28;;;;;;;16.73;12.33;;;12.50;99.90;;;;;;5013125;28;20560;-67
2021/09/04 06:30:55;;;;;;;13.07;11.50;;;12.50;99.90;;;;;;5012992;28;20824;-67
2021/09/04 06:33:22;;;;;;;14.27;12.50;;;12.60;99.90;;;;;;5012686;28;20472;-67
2021/09/04 06:35:50;;;;;;;12.70;11.40;;;12.70;99.90;;;;;;5013263;28;20813;-67
2021/09/04 06:38:17;;;;;;;12.63;11.40;;;12.80;99.90;;;;;;5013056;28;20449;-67
2021/09/04 06:40:43;;;;;;;13.83;11.20;;;12.80;99.90;;;;;;5012964;28;20552;-67
2021/09/04 06:43:10;;;;;;;14.60;11.73;;;12.90;99.90;;;;;;5012548;28;20905;-66
2021/09/04 06:45:37;;;;;;;14.57;11.90;;;12.90;99.90;;;;;;5012915;28;20449;-67
2021/09/04 06:48:04;;;;;;;13.03;11.77;;;12.90;99.90;;;;;;5013038;28;20456;-65
2021/09/04 06:50:32;;;;;;;14.40;11.83;;;13.00;99.90;;;;;;5012915;28;20446;-67
2021/09/04 06:53:01;;;;;;;13.80;12.40;;;13.10;99.90;;;;;;5012313;28;20489;-67
2021/09/04 06:55:28;;;;;;;13.60;12.20;;;13.20;99.90;;;;;;5012690;28;20469;-67
2021/09/04 06:57:55;;;;;;;14.43;11.80;;;13.30;99.90;;;;;;5012474;28;20945;-66
2021/09/04 07:00:23;;;;;;;13.83;12.27;;;13.40;99.90;;;;;;5012618;28;20457;-67
2021/09/04 07:02:50;;;;;;;13.20;11.80;;;13.50;99.90;;;;;;5012340;28;20489;-66
2021/09/04 07:05:18;;;;;;;13.23;11.93;;;13.60;99.90;;;;;;5012816;28;20446;-66
2021/09/04 07:07:45;;;;;;;12.70;11.40;;;13.70;99.90;;;;;;5012764;28;20453;-67
2021/09/04 07:10:13;;;;;;;13.83;11.97;;;13.70;99.90;;;;;;5012436;28;20450;-67
2021/09/04 07:12:41;;;;;;;14.53;11.30;;;13.90;99.90;;;;;;5011022;28;20540;-66
2021/09/04 07:15:08;;;;;;;13.20;11.83;;;13.90;99.90;;;;;;5012485;28;20541;-66
2021/09/04 07:17:35;;;;;;;14.50;13.00;;;14.10;99.90;;;;;;5012572;28;20464;-66
2021/09/04 07:20:02;;;;;;;14.03;12.63;;;14.20;99.90;;;;;;5012471;28;20454;-66
2021/09/04 07:22:29;;;;;;;15.37;12.17;;;14.30;99.90;;;;;;5012008;28;20580;-66
2021/09/04 07:24:56;;;;;;;15.07;13.20;;;14.50;99.90;;;;;;5012446;28;20449;-67
2021/09/04 07:27:24;;;;;;;13.67;12.03;;;14.60;99.90;;;;;;5012031;28;20445;-67
2021/09/04 07:29:51;;;;;;;15.80;12.80;;;14.70;99.90;;;;;;5012085;28;20549;-71
2021/09/04 07:32:18;;;;;;;15.87;14.20;;;14.80;99.90;;;;;;5012050;28;20473;-65
2021/09/04 07:34:45;;;;;;;15.17;13.27;;;15.00;99.90;;;;;;5012159;28;20466;-63
2021/09/04 07:37:12;;;;;;;14.20;12.80;;;15.20;99.90;;;;;;5012016;28;20533;-65
2021/09/04 07:39:39;;;;;;;15.03;13.10;;;15.30;99.90;;;;;;5012022;28;20450;-65
2021/09/04 07:42:06;;;;;;;15.50;13.30;;;15.40;99.90;;;;;;5011523;28;20482;-66
2021/09/04 07:44:34;;;;;;;16.10;12.90;;;15.50;99.90;;;;;;5012110;28;20470;-65
2021/09/04 07:47:01;;;;;;;20.40;13.50;;;15.70;99.90;;;;;;5012242;28;20450;-65
2021/09/04 07:49:28;;;;;;;13.70;12.23;;;15.80;99.90;;;;;;5011902;28;20449;-65
2021/09/04 07:51:55;;;;;;;15.80;12.77;;;15.90;99.90;;;;;;5011478;28;20449;-65
2021/09/04 07:54:22;;;;;;;15.30;12.70;;;16.00;99.90;;;;;;5011648;28;20535;-66
2021/09/04 07:56:49;;;;;;;14.33;12.77;;;16.20;99.90;;;;;;5011957;28;20537;-65
2021/09/04 07:59:16;;;;;;;14.37;11.67;;;16.30;99.90;;;;;;5011515;28;20975;-67
2021/09/04 08:01:44;;;;;;;13.77;12.33;;;16.40;99.90;;;;;;5011337;28;20480;-66
2021/09/04 08:04:13;;;;;;;13.27;11.87;;;16.50;99.90;;;;;;5011183;28;20466;-66
2021/09/04 08:06:40;;;;;;;12.80;11.50;;;16.70;99.90;;;;;;5011309;28;20442;-66
2021/09/04 08:09:07;;;;;;;11.83;10.47;;;16.80;99.90;;;;;;5011149;28;20442;-66
2021/09/04 08:11:34;;;;;;;12.90;11.53;;;16.90;99.90;;;;;;5010968;28;20486;-66
2021/09/04 08:14:00;;;;;;;12.47;11.17;;;17.00;99.90;;;;;;5010775;28;20480;-65
2021/09/04 08:16:27;;;;;;;14.63;10.87;;;17.20;99.90;;;;;;5011250;28;20550;-65
2021/09/04 08:18:55;;;;;;;12.53;11.23;;;17.30;99.90;;;;;;5010970;28;20452;-66
2021/09/04 08:21:22;;;;;;;11.77;10.27;;;17.40;99.90;;;;;;5010656;28;20490;-67
2021/09/04 08:23:49;;;;;;;11.83;10.53;;;17.50;99.90;;;;;;5010856;28;20504;-65
2021/09/04 08:26:16;;;;;;;12.60;11.10;;;17.70;99.90;;;;;;5011150;28;20450;-65
2021/09/04 08:28:43;;;;;;;11.90;10.23;;;17.80;99.90;;;;;;5010665;28;20446;-66
2021/09/04 08:31:09;;;;;;;11.20;9.17;;;17.90;99.90;;;;;;5010771;28;20473;-66
2021/09/04 08:33:36;;;;;;;11.17;10.03;;;18.00;99.90;;;;;;5010281;28;20832;-66
2021/09/04 08:36:05;;;;;;;11.60;9.40;;;18.10;99.90;;;;;;5010552;28;20450;-66
2021/09/04 08:38:32;;;;;;;12.43;10.60;;;18.20;99.90;;;;;;5010633;28;21028;-66
2021/09/04 08:40:59;;;;;;;11.30;9.80;;;18.40;99.90;;;;;;5010636;28;20454;-67
2021/09/04 08:43:26;;;;;;;12.57;9.87;;;18.60;99.90;;;;;;5010300;28;20489;-66
2021/09/04 08:45:53;;;;;;;10.23;9.23;;;18.80;99.90;;;;;;5010459;28;20450;-65
2021/09/04 08:48:21;;;;;;;10.47;9.47;;;18.90;99.90;;;;;;5010570;28;20533;-66
2021/09/04 08:50:48;;;;;;;11.17;9.93;;;19.00;99.90;;;;;;5010223;28;20964;-66
2021/09/04 08:53:16;;;;;;;10.70;9.57;;;19.10;99.90;;;;;;5010602;28;20466;-66
2021/09/04 08:55:43;;;;;;;9.77;8.30;;;19.20;99.90;;;;;;5010658;28;20533;-65
2021/09/04 08:58:10;;;;;;;10.80;9.20;;;19.40;99.90;;;;;;5010421;28;20537;-65
2021/09/04 09:00:38;;;;;;;12.00;8.67;;;19.60;99.90;;;;;;5010419;28;20458;-66
2021/09/04 09:03:06;;;;;;;11.53;8.20;;;19.60;99.90;;;;;;5009667;28;20842;-66
2021/09/04 09:05:39;;;;;;;9.90;8.60;;;19.80;99.90;;;;;;5010090;28;20494;-66
2021/09/04 09:08:07;;;;;;;9.50;8.50;;;20.00;99.90;;;;;;5010167;28;20441;-66
2021/09/04 09:10:40;;;;;;;10.40;9.00;;;20.10;99.90;;;;;;5010077;28;20442;-66
2021/09/04 09:13:07;;;;;;;10.33;8.30;;;20.40;99.90;;;;;;5009564;28;20481;-66
2021/09/04 09:15:37;;;;;;;11.83;9.73;;;20.70;99.90;;;;;;5009932;28;20564;-66
2021/09/04 09:18:07;;;;;;;11.20;8.20;;;20.90;99.90;;;;;;5010139;28;20446;-66
2021/09/04 09:20:35;;;;;;;8.80;7.90;;;21.30;99.90;;;;;;5010154;28;20891;-66
2021/09/04 09:23:08;;;;;;;8.87;7.97;;;21.60;99.90;;;;;;5009592;28;20492;-66
2021/09/04 09:25:35;;;;;;;9.07;8.20;;;22.00;99.90;;;;;;5010087;28;20541;-66
2021/09/04 09:28:06;;;;;;;9.10;8.00;;;22.60;99.90;;;;;;5009951;28;20946;-66
2021/09/04 09:30:35;;;;;;;7.93;7.10;;;22.90;99.90;;;;;;5010167;28;20504;-66
2021/09/04 09:33:02;;;;;;;8.63;7.83;;;23.50;99.90;;;;;;5008521;28;20862;-66
2021/09/04 09:35:34;;;;;;;8.33;7.53;;;23.80;99.90;;;;;;5010552;28;20532;-66
2021/09/04 09:38:02;;;;;;;11.37;8.27;;;24.20;99.90;;;;;;5014081;28;20446;-66
2021/09/04 09:40:29;;;;;;;9.27;7.90;;;24.70;99.90;;;;;;5013852;28;20456;-66
2021/09/04 09:42:56;;;;;;;11.57;8.30;;;25.00;99.90;;;;;;5013645;28;20489;-66
2021/09/04 09:45:40;;;;;;;8.90;8.00;;;24.90;99.90;;;;;;5014048;28;20532;-66
2021/09/04 09:48:07;;;;;;;9.33;8.33;;;24.90;99.90;;;;;;5013776;28;20937;-66
2021/09/04 09:50:36;;;;;;;11.17;8.23;;;25.30;99.90;;;;;;5013807;28;20484;-66
2021/09/04 09:53:05;;;;;;;7.10;6.40;;;25.40;99.90;;;;;;5013529;28;20473;-66
2021/09/04 09:55:33;;;;;;;11.60;8.37;;;25.50;99.90;;;;;;5014008;28;20894;-66
2021/09/04 09:58:00;;;;;;;7.23;6.53;;;25.80;99.90;;;;;;5013587;28;20445;-67
2021/09/04 10:00:28;;;;;;;8.57;7.73;;;26.10;99.90;;;;;;5013569;28;20477;-65
2021/09/04 10:03:00;;;;;;;8.40;6.80;;;26.20;99.90;;;;;;5013271;28;20489;-67
2021/09/04 10:05:29;;;;;;;8.10;7.30;;;26.50;99.90;;;;;;5013670;28;20453;-67
2021/09/04 10:07:57;;;;;;;8.70;7.90;;;26.70;98.20;;;;;;5013568;28;20449;-66
2021/09/04 10:10:26;;;;;;;8.20;7.40;;;26.90;99.90;;;;;;5013813;28;20965;-66
2021/09/04 10:12:53;;;;;;;8.87;7.87;;;27.00;99.10;;;;;;5013832;28;20465;-65
2021/09/04 10:15:20;;;;;;;7.10;6.40;;;27.00;96.40;;;;;;5013459;28;20450;-64
2021/09/04 10:17:52;;;;;;;11.47;7.47;;;27.10;98.60;;;;;;5013538;28;20450;-65
2021/09/04 10:20:22;;;;;;;7.87;6.60;;;27.10;97.70;;;;;;5013863;28;20454;-65
2021/09/04 10:22:50;;;;;;;6.03;5.43;;;27.10;98.60;;;;;;5013431;28;20546;-65
2021/09/04 10:25:19;;;;;;;5.60;5.10;;;27.20;95.00;;;;;;5013882;28;20636;-66
2021/09/04 10:27:48;;;;;;;6.10;5.40;;;27.20;96.40;;;;;;5013546;28;20801;-64
2021/09/04 10:30:29;;;;;;;5.80;5.20;;;27.00;94.10;;;;;;5013287;28;20453;-67
2021/09/04 10:32:58;;;;;;;5.90;5.40;;;26.80;94.60;;;;;;5013066;28;20461;-67
2021/09/04 10:35:45;;;;;;;5.97;5.17;;;27.00;96.00;;;;;;5013168;28;20941;-66
2021/09/04 10:38:24;;;;;;;5.20;4.70;;;27.40;95.40;;;;;;5013466;28;20528;-66
2021/09/04 10:40:53;;;;;;;7.03;4.50;;;27.90;94.60;;;;;;5013177;28;20524;-67
2021/09/04 10:43:21;;;;;;;5.90;4.47;;;28.30;93.90;;;;;;5009817;28;20563;-66
2021/09/04 10:45:50;;;;;;;5.13;4.63;;;28.70;94.10;;;;;;5022158;28;21253;-67
2021/09/04 10:48:19;;;;;;;5.30;4.50;;;28.90;91.60;;;;;;5021351;28;20447;-66
2021/09/04 10:53:44;;;;;;;4.93;4.40;;;29.30;90.60;;;;;;5126279;27;20522;-66
2021/09/04 10:56:21;;;;;;;5.00;3.80;;;29.20;87.60;;;;;;5106776;27;20450;-66
2021/09/04 10:58:48;;;;;;;5.43;4.70;;;29.70;86.00;;;;;;5106117;28;20544;-66
2021/09/04 11:01:19;;;;;;;5.43;4.83;;;29.70;84.80;;;;;;5105792;28;20472;-66
2021/09/04 11:03:53;;;;;;;5.10;4.60;;;30.00;86.10;;;;;;5105760;28;20469;-66
2021/09/04 11:06:20;;;;;;;5.27;4.50;;;30.10;87.80;;;;;;5106153;28;20528;-66
2021/09/04 11:08:49;;;;;;;5.80;4.50;;;30.50;85.70;;;;;;5106015;28;20479;-66
2021/09/04 11:11:27;;;;;;;5.13;4.30;;;30.90;82.20;;;;;;5105185;28;20540;-66
2021/09/04 11:13:55;;;;;;;4.80;4.30;;;31.50;82.30;;;;;;5105119;28;20466;-66
2021/09/04 11:16:34;;;;;;;6.90;4.57;;;31.80;80.90;;;;;;5105581;28;20448;-67
2021/09/04 11:19:04;;;;;;;5.47;4.97;;;32.00;78.90;;;;;;5105624;28;20944;-66
2021/09/04 11:21:32;;;;;;;6.27;5.00;;;32.40;79.70;;;;;;5105479;28;20441;-66
2021/09/04 11:24:01;;;;;;;5.43;4.83;;;32.40;79.00;;;;;;5105427;28;20508;-66
2021/09/04 11:26:27;;;;;;;5.10;4.57;;;32.50;76.20;;;;;;5105519;28;20475;-66
2021/09/04 11:28:56;;;;;;;7.80;5.40;;;31.30;76.10;;;;;;5105769;28;20455;-66
2021/09/04 11:31:24;;;;;;;8.30;5.27;;;31.30;79.10;;;;;;5105341;28;20453;-66
2021/09/04 11:33:52;;;;;;;5.50;4.70;;;30.90;78.50;;;;;;5105341;28;20457;-66
2021/09/04 11:36:31;;;;;;;8.20;5.67;;;30.60;78.00;;;;;;5105419;28;20445;-66
2021/09/04 11:39:00;;;;;;;8.70;5.40;;;29.60;77.70;;;;;;5105245;28;20827;-65
2021/09/04 11:41:27;;;;;;;6.00;5.40;;;29.80;77.90;;;;;;5104852;28;20986;-65
2021/09/04 11:43:54;;;;;;;6.20;5.37;;;30.30;78.30;;;;;;5105014;28;20469;-66
2021/09/04 11:46:25;;;;;;;7.13;4.37;;;31.30;81.20;;;;;;5105067;28;20437;-66
2021/09/04 11:48:54;;;;;;;4.47;4.00;;;32.40;75.90;;;;;;5105203;28;20455;-66
2021/09/04 11:51:21;;;;;;;4.30;3.80;;;33.30;69.60;;;;;;5088947;28;20465;-66
2021/09/04 11:53:48;;;;;;;4.73;4.23;;;34.00;70.80;;;;;;5099283;28;20545;-66
2021/09/04 11:56:17;;;;;;;5.20;4.70;;;34.60;65.90;;;;;;5104850;28;20452;-66
2021/09/04 11:58:44;;;;;;;4.93;4.33;;;35.10;64.70;;;;;;5104763;28;20484;-66
2021/09/04 12:01:10;;;;;;;5.73;4.50;;;35.20;63.30;;;;;;5103628;28;20540;-66
2021/09/04 12:03:37;;;;;;;4.60;4.00;;;35.50;59.30;;;;;;5094561;28;20472;-66
2021/09/04 12:06:07;;;;;;;6.90;4.30;;;35.80;57.50;;;;;;5092774;28;20446;-66
2021/09/04 12:08:35;;;;;;;4.43;3.37;;;36.10;55.70;;;;;;5088979;28;20441;-66
2021/09/04 12:11:06;;;;;;;4.50;3.60;;;36.70;56.60;;;;;;5092599;28;20442;-66
2021/09/04 12:13:34;;;;;;;5.37;3.53;;;37.20;53.20;;;;;;5090324;28;20500;-66
2021/09/04 12:16:03;;;;;;;11.20;3.90;;;36.90;51.90;;;;;;5092316;28;20945;-66
2021/09/04 12:18:31;;;;;;;4.87;3.70;;;37.00;50.50;;;;;;5092510;28;20533;-66
2021/09/04 12:20:59;;;;;;;5.30;4.27;;;37.60;56.00;;;;;;5092480;28;20454;-66
2021/09/04 12:23:27;;;;;;;4.90;4.23;;;37.90;53.60;;;;;;5092332;28;20545;-66
2021/09/04 12:26:04;;;;;;;4.87;3.93;;;38.40;52.10;;;;;;5092611;28;20549;-66
2021/09/04 12:28:32;;;;;;;5.17;4.27;;;38.80;52.60;;;;;;5092302;28;20437;-66
2021/09/04 12:31:04;;;;;;;4.60;4.00;;;38.90;50.00;;;;;;5092229;28;20807;-66
2021/09/04 12:33:31;;;;;;;7.63;3.87;;;38.90;48.80;;;;;;5092078;28;20478;-66
2021/09/04 12:35:59;;;;;;;4.70;3.77;;;38.90;49.70;;;;;;5092403;28;20438;-66
2021/09/04 12:38:28;;;;;;;4.50;3.90;;;38.90;48.90;;;;;;5092217;28;20457;-66